sensor_id;sensor_type;location;lat;lon;timestamp;temperature;humidity
39525;DHT22;25203;50.754;6.978;2023-02-27T00:00:44;-1.90;99.90
39525;DHT22;25203;50.754;6.978;2023-02-27T00:02:50;-1.90;99.90
39525;DHT22;25203;50.754;6.978;2023-02-27T00:04:51;-1.90;99.90
39525;DHT22;25203;50.754;6.978;2023-02-27T00:06:51;-1.90;99.90
39525;DHT22;25203;50.754;6.978;2023-02-27T00:08:53;-1.90;99.90
39525;DHT22;25203;50.754;6.978;2023-02-27T00:10:53;-2.00;99.90
39525;DHT22;25203;50.754;6.978;2023-02-27T00:12:54;-2.00;99.90
39525;DHT22;25203;50.754;6.978;2023-02-27T00:14:55;-2.10;99.90
39525;DHT22;25203;50.754;6.978;2023-02-27T00:16:56;-2.20;99.90
39525;DHT22;25203;50.754;6.978;2023-02-27T00:18:56;-2.20;99.90
39525;DHT22;25203;50.754;6.978;2023-02-27T00:21:00;-2.20;99.90
39525;DHT22;25203;50.754;6.978;2023-02-27T00:23:01;-2.30;99.90
39525;DHT22;25203;50.754;6.978;2023-02-27T00:25:01;-2.30;99.90
39525;DHT22;25203;50.754;6.978;2023-02-27T00:27:02;-2.30;99.90
39525;DHT22;25203;50.754;6.978;2023-02-27T00:29:04;-2.40;99.90
39525;DHT22;25203;50.754;6.978;2023-02-27T00:31:04;-2.40;99.90
39525;DHT22;25203;50.754;6.978;2023-02-27T00:33:05;-2.40;99.90
39525;DHT22;25203;50.754;6.978;2023-02-27T00:35:09;-2.40;99.90
39525;DHT22;25203;50.754;6.978;2023-02-27T00:37:09;-2.40;99.90
39525;DHT22;25203;50.754;6.978;2023-02-27T00:39:10;-2.40;99.90
39525;DHT22;25203;50.754;6.978;2023-02-27T00:41:11;-2.40;99.90
39525;DHT22;25203;50.754;6.978;2023-02-27T00:43:11;-2.40;99.90
39525;DHT22;25203;50.754;6.978;2023-02-27T00:45:12;-2.40;99.90
39525;DHT22;25203;50.754;6.978;2023-02-27T00:47:12;-2.40;99.90
39525;DHT22;25203;50.754;6.978;2023-02-27T00:49:13;-2.40;99.90
39525;DHT22;25203;50.754;6.978;2023-02-27T00:51:14;-2.40;99.90
39525;DHT22;25203;50.754;6.978;2023-02-27T00:53:15;-2.40;99.90
39525;DHT22;25203;50.754;6.978;2023-02-27T00:55:15;-2.40;99.90
39525;DHT22;25203;50.754;6.978;2023-02-27T00:57:16;-2.40;99.90
39525;DHT22;25203;50.754;6.978;2023-02-27T00:59:17;-2.40;99.90
39525;DHT22;25203;50.754;6.978;2023-02-27T01:01:17;-2.50;99.90
39525;DHT22;25203;50.754;6.978;2023-02-27T01:03:18;-2.50;99.90
39525;DHT22;25203;50.754;6.978;2023-02-27T01:05:19;-2.50;99.90
39525;DHT22;25203;50.754;6.978;2023-02-27T01:07:19;-2.50;99.90
39525;DHT22;25203;50.754;6.978;2023-02-27T01:09:20;-2.60;99.90
39525;DHT22;25203;50.754;6.978;2023-02-27T01:11:21;-2.60;99.90
39525;DHT22;25203;50.754;6.978;2023-02-27T01:13:22;-2.60;99.90
39525;DHT22;25203;50.754;6.978;2023-02-27T01:15:23;-2.70;99.90
39525;DHT22;25203;50.754;6.978;2023-02-27T01:17:23;-2.70;99.90
39525;DHT22;25203;50.754;6.978;2023-02-27T01:19:24;-2.70;99.90
39525;DHT22;25203;50.754;6.978;2023-02-27T01:21:25;-2.70;99.90
39525;DHT22;25203;50.754;6.978;2023-02-27T01:23:26;-2.80;99.90
39525;DHT22;25203;50.754;6.978;2023-02-27T01:25:26;-2.70;99.90
39525;DHT22;25203;50.754;6.978;2023-02-27T01:27:27;-2.80;99.90
39525;DHT22;25203;50.754;6.978;2023-02-27T01:29:28;-2.80;99.90
39525;DHT22;25203;50.754;6.978;2023-02-27T01:31:28;-2.80;99.90
39525;DHT22;25203;50.754;6.978;2023-02-27T01:33:29;-2.80;99.90
39525;DHT22;25203;50.754;6.978;2023-02-27T01:35:29;-2.80;99.90
39525;DHT22;25203;50.754;6.978;2023-02-27T01:37:30;-2.80;99.90
39525;DHT22;25203;50.754;6.978;2023-02-27T01:39:30;-2.80;99.90
39525;DHT22;25203;50.754;6.978;2023-02-27T01:41:32;-2.80;99.90
39525;DHT22;25203;50.754;6.978;2023-02-27T01:43:33;-2.80;99.90
39525;DHT22;25203;50.754;6.978;2023-02-27T01:45:52;-2.90;99.90
39525;DHT22;25203;50.754;6.978;2023-02-27T01:48:15;-2.90;99.90
39525;DHT22;25203;50.754;6.978;2023-02-27T01:50:17;-2.90;99.90
39525;DHT22;25203;50.754;6.978;2023-02-27T01:52:18;-3.00;99.90
39525;DHT22;25203;50.754;6.978;2023-02-27T01:54:21;-2.90;99.90
39525;DHT22;25203;50.754;6.978;2023-02-27T01:56:26;-2.90;99.90
39525;DHT22;25203;50.754;6.978;2023-02-27T01:58:28;-2.90;99.90
39525;DHT22;25203;50.754;6.978;2023-02-27T02:00:29;-2.80;99.90
39525;DHT22;25203;50.754;6.978;2023-02-27T02:02:35;-2.80;99.90
39525;DHT22;25203;50.754;6.978;2023-02-27T02:04:38;-2.90;99.90
39525;DHT22;25203;50.754;6.978;2023-02-27T02:06:43;-2.80;99.90
39525;DHT22;25203;50.754;6.978;2023-02-27T02:08:46;-2.80;99.90
39525;DHT22;25203;50.754;6.978;2023-02-27T02:10:49;-2.90;99.90
39525;DHT22;25203;50.754;6.978;2023-02-27T02:12:51;-2.90;99.90
39525;DHT22;25203;50.754;6.978;2023-02-27T02:14:51;-3.00;99.90
39525;DHT22;25203;50.754;6.978;2023-02-27T02:17:06;-3.00;99.90
39525;DHT22;25203;50.754;6.978;2023-02-27T02:26:50;-2.90;99.90
39525;DHT22;25203;50.754;6.978;2023-02-27T02:29:16;-3.00;99.90
39525;DHT22;25203;50.754;6.978;2023-02-27T02:42:39;-3.00;99.90
39525;DHT22;25203;50.754;6.978;2023-02-27T02:44:49;-3.10;99.90
39525;DHT22;25203;50.754;6.978;2023-02-27T02:47:16;-3.10;99.90
39525;DHT22;25203;50.754;6.978;2023-02-27T02:51:55;-3.20;99.90
39525;DHT22;25203;50.754;6.978;2023-02-27T02:54:16;-3.20;99.90
39525;DHT22;25203;50.754;6.978;2023-02-27T02:56:31;-3.20;99.90
39525;DHT22;25203;50.754;6.978;2023-02-27T02:58:34;-3.20;99.90
39525;DHT22;25203;50.754;6.978;2023-02-27T03:00:45;-3.10;99.90
39525;DHT22;25203;50.754;6.978;2023-02-27T03:02:55;-3.10;99.90
39525;DHT22;25203;50.754;6.978;2023-02-27T03:05:05;-3.10;99.90
39525;DHT22;25203;50.754;6.978;2023-02-27T03:09:48;-3.20;99.90
39525;DHT22;25203;50.754;6.978;2023-02-27T03:11:52;-3.20;99.90
39525;DHT22;25203;50.754;6.978;2023-02-27T03:14:18;-3.30;99.90
39525;DHT22;25203;50.754;6.978;2023-02-27T03:16:45;-3.30;99.90
39525;DHT22;25203;50.754;6.978;2023-02-27T03:18:56;-3.40;99.90
39525;DHT22;25203;50.754;6.978;2023-02-27T03:21:07;-3.50;99.90
39525;DHT22;25203;50.754;6.978;2023-02-27T03:23:16;-3.60;99.90
39525;DHT22;25203;50.754;6.978;2023-02-27T03:25:18;-3.70;99.90
39525;DHT22;25203;50.754;6.978;2023-02-27T03:27:20;-3.80;99.90
39525;DHT22;25203;50.754;6.978;2023-02-27T03:29:32;-3.70;99.90
39525;DHT22;25203;50.754;6.978;2023-02-27T03:31:43;-3.60;99.90
39525;DHT22;25203;50.754;6.978;2023-02-27T03:33:52;-3.60;99.90
39525;DHT22;25203;50.754;6.978;2023-02-27T03:45:44;-3.70;99.90
39525;DHT22;25203;50.754;6.978;2023-02-27T03:47:47;-3.80;99.90
39525;DHT22;25203;50.754;6.978;2023-02-27T03:49:48;-3.90;99.90
39525;DHT22;25203;50.754;6.978;2023-02-27T03:51:51;-3.90;99.90
39525;DHT22;25203;50.754;6.978;2023-02-27T03:54:21;-3.90;99.90
39525;DHT22;25203;50.754;6.978;2023-02-27T03:56:28;-4.00;99.90
39525;DHT22;25203;50.754;6.978;2023-02-27T03:58:30;-4.10;99.90
39525;DHT22;25203;50.754;6.978;2023-02-27T04:00:31;-4.10;99.90
39525;DHT22;25203;50.754;6.978;2023-02-27T04:02:32;-4.20;99.90
39525;DHT22;25203;50.754;6.978;2023-02-27T04:04:33;-4.30;99.90
39525;DHT22;25203;50.754;6.978;2023-02-27T04:06:36;-4.30;99.90
39525;DHT22;25203;50.754;6.978;2023-02-27T04:09:01;-4.30;99.90
39525;DHT22;25203;50.754;6.978;2023-02-27T04:13:19;-4.30;99.90
39525;DHT22;25203;50.754;6.978;2023-02-27T04:17:32;-4.30;99.90
39525;DHT22;25203;50.754;6.978;2023-02-27T04:29:53;-4.50;99.90
39525;DHT22;25203;50.754;6.978;2023-02-27T04:32:09;-4.60;99.90
39525;DHT22;25203;50.754;6.978;2023-02-27T04:34:23;-4.50;99.90
39525;DHT22;25203;50.754;6.978;2023-02-27T04:36:43;-4.50;99.90
39525;DHT22;25203;50.754;6.978;2023-02-27T04:41:18;-4.50;99.90
39525;DHT22;25203;50.754;6.978;2023-02-27T04:43:17;-4.60;99.90
39525;DHT22;25203;50.754;6.978;2023-02-27T04:45:20;-4.60;99.90
39525;DHT22;25203;50.754;6.978;2023-02-27T04:47:23;-4.60;99.90
39525;DHT22;25203;50.754;6.978;2023-02-27T04:51:41;-4.70;99.90
39525;DHT22;25203;50.754;6.978;2023-02-27T04:53:52;-4.70;99.90
39525;DHT22;25203;50.754;6.978;2023-02-27T04:55:57;-4.80;99.90
39525;DHT22;25203;50.754;6.978;2023-02-27T04:58:09;-4.70;99.90
39525;DHT22;25203;50.754;6.978;2023-02-27T05:00:12;-4.80;99.90
39525;DHT22;25203;50.754;6.978;2023-02-27T05:02:18;-4.80;99.90
39525;DHT22;25203;50.754;6.978;2023-02-27T05:04:26;-4.80;99.90
39525;DHT22;25203;50.754;6.978;2023-02-27T05:06:31;-4.80;99.90
39525;DHT22;25203;50.754;6.978;2023-02-27T05:10:46;-4.80;99.90
39525;DHT22;25203;50.754;6.978;2023-02-27T05:12:58;-4.80;99.90
39525;DHT22;25203;50.754;6.978;2023-02-27T05:15:12;-4.80;99.90
39525;DHT22;25203;50.754;6.978;2023-02-27T05:17:20;-4.90;99.90
39525;DHT22;25203;50.754;6.978;2023-02-27T05:19:22;-4.90;99.90
39525;DHT22;25203;50.754;6.978;2023-02-27T05:21:33;-4.90;99.90
39525;DHT22;25203;50.754;6.978;2023-02-27T05:26:04;-5.00;99.90
39525;DHT22;25203;50.754;6.978;2023-02-27T05:28:16;-5.00;99.90
39525;DHT22;25203;50.754;6.978;2023-02-27T05:30:25;-5.00;99.90
39525;DHT22;25203;50.754;6.978;2023-02-27T05:34:42;-5.00;99.90
39525;DHT22;25203;50.754;6.978;2023-02-27T05:37:00;-5.00;99.90
39525;DHT22;25203;50.754;6.978;2023-02-27T05:39:08;-5.00;99.90
39525;DHT22;25203;50.754;6.978;2023-02-27T05:43:34;-5.00;99.90
39525;DHT22;25203;50.754;6.978;2023-02-27T05:45:38;-5.00;99.90
39525;DHT22;25203;50.754;6.978;2023-02-27T05:47:45;-5.10;99.90
39525;DHT22;25203;50.754;6.978;2023-02-27T05:50:04;-5.10;99.90
39525;DHT22;25203;50.754;6.978;2023-02-27T05:52:11;-5.10;99.90
39525;DHT22;25203;50.754;6.978;2023-02-27T05:56:49;-5.10;99.90
39525;DHT22;25203;50.754;6.978;2023-02-27T05:59:05;-5.10;99.90
39525;DHT22;25203;50.754;6.978;2023-02-27T06:01:08;-5.10;99.90
39525;DHT22;25203;50.754;6.978;2023-02-27T06:03:09;-5.20;99.90
39525;DHT22;25203;50.754;6.978;2023-02-27T06:05:12;-5.10;99.90
39525;DHT22;25203;50.754;6.978;2023-02-27T06:07:14;-5.10;99.90
39525;DHT22;25203;50.754;6.978;2023-02-27T06:09:15;-5.20;99.90
39525;DHT22;25203;50.754;6.978;2023-02-27T06:11:16;-5.10;99.90
39525;DHT22;25203;50.754;6.978;2023-02-27T06:13:17;-5.10;99.90
39525;DHT22;25203;50.754;6.978;2023-02-27T06:15:18;-5.10;99.90
39525;DHT22;25203;50.754;6.978;2023-02-27T06:17:19;-5.20;99.90
39525;DHT22;25203;50.754;6.978;2023-02-27T06:19:19;-5.20;99.90
39525;DHT22;25203;50.754;6.978;2023-02-27T06:21:20;-5.20;99.90
39525;DHT22;25203;50.754;6.978;2023-02-27T06:23:20;-5.20;99.90
39525;DHT22;25203;50.754;6.978;2023-02-27T06:25:21;-5.20;99.90
39525;DHT22;25203;50.754;6.978;2023-02-27T06:27:22;-5.20;99.90
39525;DHT22;25203;50.754;6.978;2023-02-27T06:29:22;-5.20;99.90
39525;DHT22;25203;50.754;6.978;2023-02-27T06:31:23;-5.20;99.90
39525;DHT22;25203;50.754;6.978;2023-02-27T06:33:24;-5.20;99.90
39525;DHT22;25203;50.754;6.978;2023-02-27T06:35:25;-5.20;99.90
39525;DHT22;25203;50.754;6.978;2023-02-27T06:37:26;-5.20;99.90
39525;DHT22;25203;50.754;6.978;2023-02-27T06:39:27;-5.10;99.90
39525;DHT22;25203;50.754;6.978;2023-02-27T06:41:28;-5.10;99.90
39525;DHT22;25203;50.754;6.978;2023-02-27T06:43:28;-5.00;99.90
39525;DHT22;25203;50.754;6.978;2023-02-27T06:45:29;-5.00;99.90
39525;DHT22;25203;50.754;6.978;2023-02-27T06:47:30;-5.00;99.90
39525;DHT22;25203;50.754;6.978;2023-02-27T06:49:31;-4.90;99.90
39525;DHT22;25203;50.754;6.978;2023-02-27T06:51:31;-4.90;99.90
39525;DHT22;25203;50.754;6.978;2023-02-27T06:53:32;-4.90;99.90
39525;DHT22;25203;50.754;6.978;2023-02-27T06:55:33;-4.90;99.90
39525;DHT22;25203;50.754;6.978;2023-02-27T06:57:34;-4.80;99.90
39525;DHT22;25203;50.754;6.978;2023-02-27T06:59:34;-4.80;99.90
39525;DHT22;25203;50.754;6.978;2023-02-27T07:01:35;-4.80;99.90
39525;DHT22;25203;50.754;6.978;2023-02-27T07:03:36;-4.80;99.90
39525;DHT22;25203;50.754;6.978;2023-02-27T07:05:36;-4.80;99.90
39525;DHT22;25203;50.754;6.978;2023-02-27T07:07:37;-4.80;99.90
39525;DHT22;25203;50.754;6.978;2023-02-27T07:09:38;-4.70;99.90
39525;DHT22;25203;50.754;6.978;2023-02-27T07:11:39;-4.60;99.90
39525;DHT22;25203;50.754;6.978;2023-02-27T07:13:39;-4.50;99.90
39525;DHT22;25203;50.754;6.978;2023-02-27T07:15:40;-4.50;99.90
39525;DHT22;25203;50.754;6.978;2023-02-27T07:17:41;-4.40;99.90
39525;DHT22;25203;50.754;6.978;2023-02-27T07:19:41;-4.30;99.90
39525;DHT22;25203;50.754;6.978;2023-02-27T07:21:42;-4.20;99.90
39525;DHT22;25203;50.754;6.978;2023-02-27T07:23:42;-4.10;99.90
39525;DHT22;25203;50.754;6.978;2023-02-27T07:25:45;-3.90;99.90
39525;DHT22;25203;50.754;6.978;2023-02-27T07:27:46;-3.70;99.90
39525;DHT22;25203;50.754;6.978;2023-02-27T07:29:51;-3.60;99.90
39525;DHT22;25203;50.754;6.978;2023-02-27T07:31:53;-3.10;99.90
39525;DHT22;25203;50.754;6.978;2023-02-27T07:33:53;-1.70;99.90
39525;DHT22;25203;50.754;6.978;2023-02-27T07:35:54;0.30;99.90
39525;DHT22;25203;50.754;6.978;2023-02-27T07:37:55;2.30;99.90
39525;DHT22;25203;50.754;6.978;2023-02-27T07:39:55;4.30;99.90
39525;DHT22;25203;50.754;6.978;2023-02-27T07:41:56;6.30;99.90
39525;DHT22;25203;50.754;6.978;2023-02-27T07:43:56;8.20;98.10
39525;DHT22;25203;50.754;6.978;2023-02-27T07:45:57;9.90;95.20
39525;DHT22;25203;50.754;6.978;2023-02-27T07:47:58;11.20;91.90
39525;DHT22;25203;50.754;6.978;2023-02-27T07:49:59;12.40;87.50
39525;DHT22;25203;50.754;6.978;2023-02-27T07:52:00;13.70;80.10
39525;DHT22;25203;50.754;6.978;2023-02-27T07:54:00;15.00;73.40
39525;DHT22;25203;50.754;6.978;2023-02-27T07:56:01;15.70;68.20
39525;DHT22;25203;50.754;6.978;2023-02-27T07:58:02;16.40;64.10
39525;DHT22;25203;50.754;6.978;2023-02-27T08:00:07;17.00;60.20
39525;DHT22;25203;50.754;6.978;2023-02-27T08:02:10;17.50;58.40
39525;DHT22;25203;50.754;6.978;2023-02-27T08:04:11;17.80;55.60
39525;DHT22;25203;50.754;6.978;2023-02-27T08:06:12;18.20;54.30
39525;DHT22;25203;50.754;6.978;2023-02-27T08:08:13;18.60;52.70
39525;DHT22;25203;50.754;6.978;2023-02-27T08:10:14;18.50;52.30
39525;DHT22;25203;50.754;6.978;2023-02-27T08:12:16;18.50;52.00
39525;DHT22;25203;50.754;6.978;2023-02-27T08:14:16;18.80;52.80
39525;DHT22;25203;50.754;6.978;2023-02-27T08:16:17;19.30;51.30
39525;DHT22;25203;50.754;6.978;2023-02-27T08:18:17;19.80;50.70
39525;DHT22;25203;50.754;6.978;2023-02-27T08:20:18;20.50;48.70
39525;DHT22;25203;50.754;6.978;2023-02-27T08:22:21;20.60;48.30
39525;DHT22;25203;50.754;6.978;2023-02-27T08:24:22;20.50;47.60
39525;DHT22;25203;50.754;6.978;2023-02-27T08:26:23;20.40;47.00
39525;DHT22;25203;50.754;6.978;2023-02-27T08:28:24;20.90;47.00
39525;DHT22;25203;50.754;6.978;2023-02-27T08:30:25;21.20;46.60
39525;DHT22;25203;50.754;6.978;2023-02-27T08:32:26;21.40;46.10
39525;DHT22;25203;50.754;6.978;2023-02-27T08:34:27;21.30;45.90
39525;DHT22;25203;50.754;6.978;2023-02-27T08:36:28;21.80;45.20
39525;DHT22;25203;50.754;6.978;2023-02-27T08:38:28;21.70;45.10
39525;DHT22;25203;50.754;6.978;2023-02-27T08:40:29;22.20;43.80
39525;DHT22;25203;50.754;6.978;2023-02-27T08:42:29;22.10;43.20
39525;DHT22;25203;50.754;6.978;2023-02-27T08:44:30;21.90;43.40
39525;DHT22;25203;50.754;6.978;2023-02-27T08:46:31;21.60;43.60
39525;DHT22;25203;50.754;6.978;2023-02-27T08:48:31;21.60;43.50
39525;DHT22;25203;50.754;6.978;2023-02-27T08:50:32;21.40;42.90
39525;DHT22;25203;50.754;6.978;2023-02-27T08:52:32;21.10;43.10
39525;DHT22;25203;50.754;6.978;2023-02-27T08:54:33;21.10;43.10
39525;DHT22;25203;50.754;6.978;2023-02-27T08:56:34;21.20;43.50
39525;DHT22;25203;50.754;6.978;2023-02-27T08:58:34;21.20;43.00
39525;DHT22;25203;50.754;6.978;2023-02-27T09:00:35;20.90;42.80
39525;DHT22;25203;50.754;6.978;2023-02-27T09:02:35;20.80;42.40
39525;DHT22;25203;50.754;6.978;2023-02-27T09:04:36;20.80;42.50
39525;DHT22;25203;50.754;6.978;2023-02-27T09:06:37;21.10;42.50
39525;DHT22;25203;50.754;6.978;2023-02-27T09:08:38;20.90;42.50
39525;DHT22;25203;50.754;6.978;2023-02-27T09:10:38;20.60;42.30
39525;DHT22;25203;50.754;6.978;2023-02-27T09:12:39;20.70;42.70
39525;DHT22;25203;50.754;6.978;2023-02-27T09:14:40;21.00;42.50
39525;DHT22;25203;50.754;6.978;2023-02-27T09:16:40;21.40;41.90
39525;DHT22;25203;50.754;6.978;2023-02-27T09:18:41;21.90;41.90
39525;DHT22;25203;50.754;6.978;2023-02-27T09:20:42;21.90;41.60
39525;DHT22;25203;50.754;6.978;2023-02-27T09:22:42;21.50;41.50
39525;DHT22;25203;50.754;6.978;2023-02-27T09:24:43;21.30;41.20
39525;DHT22;25203;50.754;6.978;2023-02-27T09:26:44;20.90;42.00
39525;DHT22;25203;50.754;6.978;2023-02-27T09:28:45;20.40;42.30
39525;DHT22;25203;50.754;6.978;2023-02-27T09:30:46;20.30;42.00
39525;DHT22;25203;50.754;6.978;2023-02-27T09:32:47;19.60;42.60
39525;DHT22;25203;50.754;6.978;2023-02-27T09:34:47;19.60;42.50
39525;DHT22;25203;50.754;6.978;2023-02-27T09:36:48;19.70;42.20
39525;DHT22;25203;50.754;6.978;2023-02-27T09:38:49;19.70;42.10
39525;DHT22;25203;50.754;6.978;2023-02-27T09:40:50;19.40;42.20
39525;DHT22;25203;50.754;6.978;2023-02-27T09:42:55;18.90;43.50
39525;DHT22;25203;50.754;6.978;2023-02-27T09:45:02;18.60;43.50
39525;DHT22;25203;50.754;6.978;2023-02-27T09:47:05;19.30;42.80
39525;DHT22;25203;50.754;6.978;2023-02-27T09:49:11;19.60;42.50
39525;DHT22;25203;50.754;6.978;2023-02-27T09:51:17;19.50;42.70
39525;DHT22;25203;50.754;6.978;2023-02-27T09:53:39;19.90;42.20
39525;DHT22;25203;50.754;6.978;2023-02-27T09:55:41;19.90;42.50
39525;DHT22;25203;50.754;6.978;2023-02-27T09:57:52;19.70;42.60
39525;DHT22;25203;50.754;6.978;2023-02-27T10:09:00;19.20;42.90
39525;DHT22;25203;50.754;6.978;2023-02-27T10:11:07;19.30;43.00
39525;DHT22;25203;50.754;6.978;2023-02-27T10:15:49;19.80;42.20
39525;DHT22;25203;50.754;6.978;2023-02-27T10:18:01;20.00;42.20
39525;DHT22;25203;50.754;6.978;2023-02-27T10:20:09;19.80;42.60
39525;DHT22;25203;50.754;6.978;2023-02-27T10:22:20;20.40;42.10
39525;DHT22;25203;50.754;6.978;2023-02-27T10:24:49;21.00;42.10
39525;DHT22;25203;50.754;6.978;2023-02-27T10:26:52;21.70;41.20
39525;DHT22;25203;50.754;6.978;2023-02-27T10:28:53;21.30;41.10
39525;DHT22;25203;50.754;6.978;2023-02-27T10:30:56;20.60;42.00
39525;DHT22;25203;50.754;6.978;2023-02-27T10:33:08;20.70;41.30
39525;DHT22;25203;50.754;6.978;2023-02-27T10:35:25;20.50;41.60
39525;DHT22;25203;50.754;6.978;2023-02-27T10:37:27;19.90;41.90
39525;DHT22;25203;50.754;6.978;2023-02-27T10:39:28;20.00;42.60
39525;DHT22;25203;50.754;6.978;2023-02-27T10:41:30;20.20;42.20
39525;DHT22;25203;50.754;6.978;2023-02-27T10:43:31;20.80;42.20
39525;DHT22;25203;50.754;6.978;2023-02-27T10:45:32;21.10;41.60
39525;DHT22;25203;50.754;6.978;2023-02-27T10:47:33;21.50;41.20
39525;DHT22;25203;50.754;6.978;2023-02-27T10:49:34;21.40;41.20
39525;DHT22;25203;50.754;6.978;2023-02-27T10:51:37;21.80;40.60
39525;DHT22;25203;50.754;6.978;2023-02-27T10:53:37;21.30;41.00
39525;DHT22;25203;50.754;6.978;2023-02-27T10:55:38;21.40;41.10
39525;DHT22;25203;50.754;6.978;2023-02-27T10:57:41;21.20;40.80
39525;DHT22;25203;50.754;6.978;2023-02-27T10:59:50;21.10;40.50
39525;DHT22;25203;50.754;6.978;2023-02-27T11:01:58;21.70;40.50
39525;DHT22;25203;50.754;6.978;2023-02-27T11:03:59;21.80;40.40
39525;DHT22;25203;50.754;6.978;2023-02-27T11:06:20;22.30;40.10
39525;DHT22;25203;50.754;6.978;2023-02-27T11:08:25;22.30;39.70
39525;DHT22;25203;50.754;6.978;2023-02-27T11:10:27;21.80;41.50
39525;DHT22;25203;50.754;6.978;2023-02-27T11:12:31;21.20;41.30
39525;DHT22;25203;50.754;6.978;2023-02-27T11:14:32;21.20;40.90
39525;DHT22;25203;50.754;6.978;2023-02-27T11:16:48;21.50;40.80
39525;DHT22;25203;50.754;6.978;2023-02-27T11:18:51;21.60;39.80
39525;DHT22;25203;50.754;6.978;2023-02-27T11:20:53;20.60;40.20
39525;DHT22;25203;50.754;6.978;2023-02-27T11:23:21;20.00;40.90
39525;DHT22;25203;50.754;6.978;2023-02-27T11:25:23;20.40;40.90
39525;DHT22;25203;50.754;6.978;2023-02-27T11:27:28;20.50;40.80
39525;DHT22;25203;50.754;6.978;2023-02-27T11:29:29;20.80;40.80
39525;DHT22;25203;50.754;6.978;2023-02-27T11:31:31;20.20;40.90
39525;DHT22;25203;50.754;6.978;2023-02-27T11:33:38;20.00;41.20
39525;DHT22;25203;50.754;6.978;2023-02-27T11:35:39;19.90;41.50
39525;DHT22;25203;50.754;6.978;2023-02-27T11:37:40;19.80;41.20
39525;DHT22;25203;50.754;6.978;2023-02-27T11:40:01;20.00;40.80
39525;DHT22;25203;50.754;6.978;2023-02-27T11:42:25;20.00;40.60
39525;DHT22;25203;50.754;6.978;2023-02-27T11:44:28;19.30;41.40
39525;DHT22;25203;50.754;6.978;2023-02-27T11:46:29;18.10;42.30
39525;DHT22;25203;50.754;6.978;2023-02-27T11:48:41;17.00;42.80
39525;DHT22;25203;50.754;6.978;2023-02-27T11:55:00;15.30;44.60
39525;DHT22;25203;50.754;6.978;2023-02-27T12:01:54;14.90;45.10
39525;DHT22;25203;50.754;6.978;2023-02-27T12:04:02;14.90;44.60
39525;DHT22;25203;50.754;6.978;2023-02-27T12:06:15;14.30;44.50
39525;DHT22;25203;50.754;6.978;2023-02-27T12:08:46;14.60;44.30
39525;DHT22;25203;50.754;6.978;2023-02-27T12:10:56;14.60;44.50
39525;DHT22;25203;50.754;6.978;2023-02-27T12:13:12;14.20;45.80
39525;DHT22;25203;50.754;6.978;2023-02-27T12:15:36;13.80;45.30
39525;DHT22;25203;50.754;6.978;2023-02-27T12:17:44;13.50;46.00
39525;DHT22;25203;50.754;6.978;2023-02-27T12:19:55;12.90;46.70
39525;DHT22;25203;50.754;6.978;2023-02-27T12:22:21;12.80;46.50
39525;DHT22;25203;50.754;6.978;2023-02-27T12:26:41;13.40;47.10
39525;DHT22;25203;50.754;6.978;2023-02-27T12:33:35;12.60;46.90
39525;DHT22;25203;50.754;6.978;2023-02-27T12:35:38;12.50;46.90
39525;DHT22;25203;50.754;6.978;2023-02-27T12:37:42;12.50;47.30
39525;DHT22;25203;50.754;6.978;2023-02-27T12:39:44;12.10;47.70
39525;DHT22;25203;50.754;6.978;2023-02-27T12:50:24;10.50;49.80
39525;DHT22;25203;50.754;6.978;2023-02-27T12:57:43;9.30;50.70
39525;DHT22;25203;50.754;6.978;2023-02-27T13:07:28;10.10;50.60
39525;DHT22;25203;50.754;6.978;2023-02-27T13:09:39;10.20;50.10
39525;DHT22;25203;50.754;6.978;2023-02-27T13:11:46;10.20;50.40
39525;DHT22;25203;50.754;6.978;2023-02-27T13:14:15;9.90;50.40
39525;DHT22;25203;50.754;6.978;2023-02-27T13:16:34;9.60;50.80
39525;DHT22;25203;50.754;6.978;2023-02-27T13:18:44;9.20;50.80
39525;DHT22;25203;50.754;6.978;2023-02-27T13:21:06;8.80;52.00
39525;DHT22;25203;50.754;6.978;2023-02-27T13:23:21;8.60;52.60
39525;DHT22;25203;50.754;6.978;2023-02-27T13:25:24;8.40;52.60
39525;DHT22;25203;50.754;6.978;2023-02-27T13:27:30;8.10;52.90
39525;DHT22;25203;50.754;6.978;2023-02-27T13:29:40;7.70;53.10
39525;DHT22;25203;50.754;6.978;2023-02-27T13:32:02;7.50;54.00
39525;DHT22;25203;50.754;6.978;2023-02-27T13:34:19;7.60;54.30
39525;DHT22;25203;50.754;6.978;2023-02-27T13:36:43;7.90;54.30
39525;DHT22;25203;50.754;6.978;2023-02-27T13:38:46;8.30;54.50
39525;DHT22;25203;50.754;6.978;2023-02-27T13:40:47;8.60;54.10
39525;DHT22;25203;50.754;6.978;2023-02-27T13:42:51;8.70;53.20
39525;DHT22;25203;50.754;6.978;2023-02-27T13:44:54;8.70;52.90
39525;DHT22;25203;50.754;6.978;2023-02-27T13:49:28;8.80;53.00
39525;DHT22;25203;50.754;6.978;2023-02-27T13:51:45;8.90;53.00
39525;DHT22;25203;50.754;6.978;2023-02-27T13:53:46;9.00;52.90
39525;DHT22;25203;50.754;6.978;2023-02-27T13:55:47;9.10;52.60
39525;DHT22;25203;50.754;6.978;2023-02-27T13:57:57;9.10;52.40
39525;DHT22;25203;50.754;6.978;2023-02-27T14:00:37;9.00;52.40
39525;DHT22;25203;50.754;6.978;2023-02-27T14:02:44;9.00;52.50
39525;DHT22;25203;50.754;6.978;2023-02-27T14:04:53;9.00;52.30
39525;DHT22;25203;50.754;6.978;2023-02-27T14:07:00;9.00;52.70
39525;DHT22;25203;50.754;6.978;2023-02-27T14:09:02;9.10;52.80
39525;DHT22;25203;50.754;6.978;2023-02-27T14:11:19;9.00;52.60
39525;DHT22;25203;50.754;6.978;2023-02-27T14:15:52;8.50;52.80
39525;DHT22;25203;50.754;6.978;2023-02-27T14:17:54;8.40;52.90
39525;DHT22;25203;50.754;6.978;2023-02-27T14:19:55;8.50;53.70
39525;DHT22;25203;50.754;6.978;2023-02-27T14:22:26;8.50;53.50
39525;DHT22;25203;50.754;6.978;2023-02-27T14:24:33;8.50;54.00
39525;DHT22;25203;50.754;6.978;2023-02-27T14:26:37;8.40;53.10
39525;DHT22;25203;50.754;6.978;2023-02-27T14:28:46;8.20;53.10
39525;DHT22;25203;50.754;6.978;2023-02-27T14:30:52;8.20;54.00
39525;DHT22;25203;50.754;6.978;2023-02-27T14:32:58;8.30;53.30
39525;DHT22;25203;50.754;6.978;2023-02-27T14:35:03;8.30;53.20
39525;DHT22;25203;50.754;6.978;2023-02-27T14:37:06;8.30;53.30
39525;DHT22;25203;50.754;6.978;2023-02-27T14:41:38;7.90;53.60
39525;DHT22;25203;50.754;6.978;2023-02-27T14:43:47;7.70;53.70
39525;DHT22;25203;50.754;6.978;2023-02-27T14:45:55;7.50;54.40
39525;DHT22;25203;50.754;6.978;2023-02-27T14:47:56;7.30;54.20
39525;DHT22;25203;50.754;6.978;2023-02-27T14:49:57;7.10;54.40
39525;DHT22;25203;50.754;6.978;2023-02-27T14:52:19;7.10;54.20
39525;DHT22;25203;50.754;6.978;2023-02-27T14:54:22;7.40;53.90
39525;DHT22;25203;50.754;6.978;2023-02-27T14:56:23;7.80;53.70
39525;DHT22;25203;50.754;6.978;2023-02-27T14:58:25;7.90;53.50
39525;DHT22;25203;50.754;6.978;2023-02-27T15:00:35;8.00;53.50
39525;DHT22;25203;50.754;6.978;2023-02-27T15:02:36;8.20;53.70
39525;DHT22;25203;50.754;6.978;2023-02-27T15:04:37;8.40;53.40
39525;DHT22;25203;50.754;6.978;2023-02-27T15:06:42;8.60;52.90
39525;DHT22;25203;50.754;6.978;2023-02-27T15:08:49;8.70;52.90
39525;DHT22;25203;50.754;6.978;2023-02-27T15:10:52;8.60;52.70
39525;DHT22;25203;50.754;6.978;2023-02-27T15:12:53;8.70;52.60